createdAt,value
2022-11-05T00:03:45.276Z,100628.78
2022-11-05T00:11:19.009Z,100642.09
2022-11-05T00:19:07.390Z,100652.75
2022-11-05T00:26:41.125Z,100655.38
2022-11-05T00:34:17.297Z,100666.03
2022-11-05T00:42:11.261Z,100668.69
2022-11-05T00:49:46.300Z,100668.69
2022-11-05T00:57:19.967Z,100683.78
2022-11-05T01:04:55.005Z,100689.09
2022-11-05T01:12:28.927Z,100701.56
2022-11-05T01:20:04.187Z,100709.59
2022-11-05T01:27:37.993Z,100707.78
2022-11-05T01:35:16.057Z,100718.50
2022-11-05T01:42:50.451Z,100723.78
2022-11-05T01:50:34.601Z,100731.66
2022-11-05T01:58:12.829Z,100737.75
2022-11-05T02:05:50.725Z,100753.69
2022-11-05T02:13:24.364Z,100762.41
2022-11-05T02:21:21.060Z,100768.50
2022-11-05T02:29:18.496Z,100771.94
2022-11-05T02:37:03.489Z,100778.97
2022-11-05T02:44:45.934Z,100785.09
2022-11-05T02:52:26.284Z,100791.28
2022-11-05T03:00:04.100Z,100800.91
2022-11-05T03:07:50.465Z,100797.34
2022-11-05T03:15:40.464Z,100819.56
2022-11-05T03:23:24.391Z,100820.41
2022-11-05T03:30:59.347Z,100824.78
2022-11-05T03:38:38.920Z,100828.22
2022-11-05T03:46:18.754Z,100840.63
2022-11-05T03:53:58.639Z,100854.78
2022-11-05T04:01:32.816Z,100865.38
2022-11-05T04:09:25.319Z,100875.91
2022-11-05T04:17:09.536Z,100883.78
2022-11-05T04:24:44.839Z,100898.06
2022-11-05T04:32:18.513Z,100909.41
2022-11-05T04:39:53.627Z,100911.00
2022-11-05T04:47:27.288Z,100913.59
2022-11-05T04:55:02.432Z,100916.13
2022-11-05T05:02:37.538Z,100908.03
2022-11-05T05:10:12.766Z,100903.53
2022-11-05T05:17:51.396Z,100905.25
2022-11-05T05:25:26.498Z,100924.66
2022-11-05T05:33:02.978Z,100934.19
2022-11-05T05:40:37.963Z,100959.78
2022-11-05T05:48:11.575Z,100967.47
2022-11-05T05:55:46.538Z,100965.63
2022-11-05T06:03:20.682Z,100978.97
2022-11-05T06:10:55.707Z,101000.28
2022-11-05T06:18:29.608Z,101009.00
2022-11-05T06:26:07.136Z,101016.00
2022-11-05T06:33:41.410Z,101031.06
2022-11-05T06:41:16.713Z,101046.97
2022-11-05T06:48:51.021Z,101050.41
2022-11-05T06:56:26.136Z,101069.97
2022-11-05T07:03:59.852Z,101073.38
2022-11-05T07:11:34.833Z,101080.31
2022-11-05T07:19:08.502Z,101097.09
2022-11-05T07:26:43.619Z,101098.88
2022-11-05T07:34:17.639Z,101116.53
2022-11-05T07:41:54.923Z,101118.28
2022-11-05T07:49:28.607Z,101120.16
2022-11-05T07:57:03.531Z,101116.69
2022-11-05T08:04:37.189Z,101120.44
2022-11-05T08:12:12.221Z,101129.53
2022-11-05T08:19:45.834Z,101140.28
2022-11-05T08:27:20.866Z,101151.28
2022-11-05T08:34:54.505Z,101169.41
2022-11-05T08:42:29.897Z,101170.63
2022-11-05T08:50:03.843Z,101172.44
2022-11-05T08:57:38.804Z,101172.50
2022-11-05T09:05:12.370Z,101183.69
2022-11-05T09:12:47.512Z,101202.47
2022-11-05T09:20:21.554Z,101215.03
2022-11-05T09:28:07.803Z,101218.63
2022-11-05T09:35:44.005Z,101225.47
2022-11-05T09:43:26.094Z,101232.47
2022-11-05T09:51:05.710Z,101241.59
2022-11-05T09:58:44.971Z,101237.38
2022-11-05T10:06:22.659Z,101249.06
2022-11-05T10:14:00.597Z,101245.81
2022-11-05T10:22:04.325Z,101248.88
2022-11-05T10:29:32.563Z,101249.03
2022-11-05T10:37:07.744Z,101262.63
2022-11-05T10:44:48.825Z,101266.63
2022-11-05T10:52:25.808Z,101268.69
2022-11-05T11:00:24.034Z,101272.38
2022-11-05T11:08:01.607Z,101283.34
2022-11-05T11:15:37.450Z,101279.41
2022-11-05T11:23:13.976Z,101280.50
2022-11-05T11:30:52.617Z,101278.16
2022-11-05T11:38:30.191Z,101287.34
2022-11-05T11:46:09.927Z,101288.44
2022-11-05T11:53:49.263Z,101293.06
2022-11-05T12:01:55.742Z,101292.44
2022-11-05T12:09:38.406Z,101296.97
2022-11-05T12:17:33.260Z,101292.53
2022-11-05T12:25:27.788Z,101286.34
2022-11-05T12:33:17.320Z,101290.88
2022-11-05T12:41:06.980Z,101289.16
2022-11-05T12:48:53.811Z,101295.25
2022-11-05T12:56:35.321Z,101295.25
2022-11-05T13:04:16.346Z,101300.31
2022-11-05T13:11:55.502Z,101296.59
2022-11-05T13:19:33.071Z,101293.97
2022-11-05T13:27:31.821Z,101294.78
2022-11-05T13:35:09.086Z,101308.97
2022-11-05T13:43:11.833Z,101310.78
2022-11-05T13:51:03.741Z,101314.44
2022-11-05T13:58:58.725Z,101322.47
2022-11-05T14:06:36.062Z,101327.69
2022-11-05T14:14:19.115Z,101336.44
2022-11-05T14:21:54.455Z,101337.16
2022-11-05T14:29:39.595Z,101339.69
2022-11-05T14:37:37.197Z,101333.22
2022-11-05T14:45:27.197Z,101337.44
2022-11-05T14:53:10.831Z,101354.06
2022-11-05T15:00:49.155Z,101353.78
2022-11-05T15:08:32.807Z,101359.66
2022-11-05T15:16:08.901Z,101361.09
2022-11-05T15:23:45.549Z,101360.72
2022-11-05T15:31:31.913Z,101368.41
2022-11-05T15:39:29.359Z,101384.06
2022-11-05T15:47:16.007Z,101386.25
2022-11-05T15:55:08.895Z,101376.88
2022-11-05T16:02:44.595Z,101375.63
2022-11-05T16:10:20.464Z,101380.56
2022-11-05T16:17:58.809Z,101389.94
2022-11-05T16:25:40.213Z,101391.31
2022-11-05T16:33:15.347Z,101403.34
2022-11-05T16:40:49.127Z,101402.16
2022-11-05T16:48:24.255Z,101412.56
2022-11-05T16:55:58.060Z,101424.75
2022-11-05T17:03:33.176Z,101434.13
2022-11-05T17:11:07.611Z,101445.44
2022-11-05T17:18:43.691Z,101458.31
2022-11-05T17:26:17.559Z,101469.38
2022-11-05T17:33:56.697Z,101473.38
2022-11-05T17:41:30.792Z,101486.28
2022-11-05T17:49:06.598Z,101484.00
2022-11-05T17:56:44.855Z,101486.25
2022-11-05T18:04:20.056Z,101486.75
2022-11-05T18:11:53.905Z,101484.66
2022-11-05T18:19:29.383Z,101480.63
2022-11-05T18:27:03.106Z,101483.66
2022-11-05T18:34:38.263Z,101473.50
2022-11-05T18:42:12.026Z,101485.50
2022-11-05T18:49:48.314Z,101478.88
2022-11-05T18:57:21.968Z,101483.81
2022-11-05T19:12:50.882Z,101491.00
2022-11-05T19:20:26.079Z,101490.69
2022-11-05T19:27:59.679Z,101490.28
2022-11-05T19:35:40.920Z,101500.63
2022-11-05T19:43:15.183Z,101497.31
2022-11-05T19:50:51.387Z,101487.16
2022-11-05T19:58:25.089Z,101495.69
2022-11-05T20:06:04.509Z,101493.63
2022-11-05T20:13:38.253Z,101500.31
2022-11-05T20:21:13.291Z,101512.38
2022-11-05T20:28:47.157Z,101520.91
2022-11-05T20:36:24.057Z,101530.22
2022-11-05T20:43:57.699Z,101542.34
2022-11-05T20:51:32.718Z,101533.19
2022-11-05T20:59:06.808Z,101530.03
2022-11-05T21:06:41.927Z,101531.44
2022-11-05T21:14:15.824Z,101546.19
2022-11-05T21:21:50.925Z,101546.88
2022-11-05T21:29:24.835Z,101550.09
2022-11-05T21:36:59.976Z,101539.41
2022-11-05T21:44:33.805Z,101521.31
2022-11-05T21:52:29.873Z,101529.13
2022-11-05T22:00:06.998Z,101529.88
2022-11-05T22:07:42.448Z,101529.66
2022-11-05T22:15:16.266Z,101525.84
2022-11-05T22:22:51.272Z,101527.41
2022-11-05T22:30:25.018Z,101530.75
2022-11-05T22:38:00.042Z,101529.75
2022-11-05T22:45:36.489Z,101525.88
2022-11-05T22:53:12.758Z,101525.81
2022-11-05T23:00:46.501Z,101526.72
2022-11-05T23:08:38.929Z,101532.88
2022-11-05T23:16:30.633Z,101532.88
2022-11-05T23:24:06.426Z,101529.38
2022-11-05T23:31:57.477Z,101528.38
2022-11-05T23:39:33.451Z,101517.88
2022-11-05T23:47:29.493Z,101517.78
2022-11-05T23:55:06.179Z,101521.34
